sensor_id;sensor_type;location;lat;lon;timestamp;P1;durP1;ratioP1;P2;durP2;ratioP2
28266;SDS011;15525;45.568;5.448;2023-05-07T00:01:37;2.55;;;1.80;;
28266;SDS011;15525;45.568;5.448;2023-05-07T00:04:03;2.20;;;2.00;;
28266;SDS011;15525;45.568;5.448;2023-05-07T00:06:28;2.33;;;1.88;;
28266;SDS011;15525;45.568;5.448;2023-05-07T00:08:55;3.75;;;2.00;;
28266;SDS011;15525;45.568;5.448;2023-05-07T00:11:21;2.85;;;1.85;;
28266;SDS011;15525;45.568;5.448;2023-05-07T00:13:47;3.30;;;2.03;;
28266;SDS011;15525;45.568;5.448;2023-05-07T00:16:13;2.17;;;1.70;;
28266;SDS011;15525;45.568;5.448;2023-05-07T00:18:39;3.38;;;1.90;;
28266;SDS011;15525;45.568;5.448;2023-05-07T00:21:04;2.67;;;1.90;;
28266;SDS011;15525;45.568;5.448;2023-05-07T00:23:29;2.03;;;1.80;;
28266;SDS011;15525;45.568;5.448;2023-05-07T00:25:55;3.55;;;1.70;;
28266;SDS011;15525;45.568;5.448;2023-05-07T00:28:21;3.10;;;1.70;;
28266;SDS011;15525;45.568;5.448;2023-05-07T00:30:46;2.70;;;1.85;;
28266;SDS011;15525;45.568;5.448;2023-05-07T00:33:12;2.58;;;1.60;;
28266;SDS011;15525;45.568;5.448;2023-05-07T00:35:37;5.18;;;1.67;;
28266;SDS011;15525;45.568;5.448;2023-05-07T00:38:03;1.60;;;1.50;;
28266;SDS011;15525;45.568;5.448;2023-05-07T00:40:28;4.07;;;1.90;;
28266;SDS011;15525;45.568;5.448;2023-05-07T00:42:55;2.65;;;1.60;;
28266;SDS011;15525;45.568;5.448;2023-05-07T00:45:23;2.88;;;1.80;;
28266;SDS011;15525;45.568;5.448;2023-05-07T00:47:53;2.65;;;1.60;;
28266;SDS011;15525;45.568;5.448;2023-05-07T00:50:22;3.45;;;1.77;;
28266;SDS011;15525;45.568;5.448;2023-05-07T00:52:48;3.88;;;1.83;;
28266;SDS011;15525;45.568;5.448;2023-05-07T00:55:14;2.97;;;1.73;;
28266;SDS011;15525;45.568;5.448;2023-05-07T00:57:40;4.47;;;2.00;;
28266;SDS011;15525;45.568;5.448;2023-05-07T01:00:07;4.00;;;2.35;;
28266;SDS011;15525;45.568;5.448;2023-05-07T01:02:34;3.25;;;1.60;;
28266;SDS011;15525;45.568;5.448;2023-05-07T01:05:00;2.38;;;1.52;;
28266;SDS011;15525;45.568;5.448;2023-05-07T01:07:28;4.55;;;1.85;;
28266;SDS011;15525;45.568;5.448;2023-05-07T01:09:54;2.67;;;1.70;;
28266;SDS011;15525;45.568;5.448;2023-05-07T01:12:20;1.77;;;1.50;;
28266;SDS011;15525;45.568;5.448;2023-05-07T01:14:46;3.15;;;1.92;;
28266;SDS011;15525;45.568;5.448;2023-05-07T01:17:13;2.22;;;1.50;;
28266;SDS011;15525;45.568;5.448;2023-05-07T01:19:39;4.70;;;1.70;;
28266;SDS011;15525;45.568;5.448;2023-05-07T01:22:07;1.83;;;1.50;;
28266;SDS011;15525;45.568;5.448;2023-05-07T01:24:36;3.47;;;1.90;;
28266;SDS011;15525;45.568;5.448;2023-05-07T01:27:02;2.00;;;1.58;;
28266;SDS011;15525;45.568;5.448;2023-05-07T01:29:28;4.20;;;1.70;;
28266;SDS011;15525;45.568;5.448;2023-05-07T01:31:54;3.08;;;1.70;;
28266;SDS011;15525;45.568;5.448;2023-05-07T01:34:25;2.90;;;1.40;;
28266;SDS011;15525;45.568;5.448;2023-05-07T01:36:52;1.85;;;1.65;;
28266;SDS011;15525;45.568;5.448;2023-05-07T01:39:21;1.92;;;1.70;;
28266;SDS011;15525;45.568;5.448;2023-05-07T01:41:49;2.92;;;1.60;;
28266;SDS011;15525;45.568;5.448;2023-05-07T01:44:15;1.85;;;1.60;;
28266;SDS011;15525;45.568;5.448;2023-05-07T01:46:41;2.38;;;1.63;;
28266;SDS011;15525;45.568;5.448;2023-05-07T01:49:07;4.15;;;1.65;;
28266;SDS011;15525;45.568;5.448;2023-05-07T01:51:33;4.07;;;1.83;;
28266;SDS011;15525;45.568;5.448;2023-05-07T01:53:59;3.83;;;1.70;;
28266;SDS011;15525;45.568;5.448;2023-05-07T01:56:25;2.47;;;1.60;;
28266;SDS011;15525;45.568;5.448;2023-05-07T01:58:50;2.97;;;1.70;;
28266;SDS011;15525;45.568;5.448;2023-05-07T02:01:16;2.47;;;1.65;;
28266;SDS011;15525;45.568;5.448;2023-05-07T02:03:43;2.20;;;1.70;;
28266;SDS011;15525;45.568;5.448;2023-05-07T02:06:08;2.53;;;2.00;;
28266;SDS011;15525;45.568;5.448;2023-05-07T02:08:34;3.03;;;1.63;;
28266;SDS011;15525;45.568;5.448;2023-05-07T02:10:59;1.95;;;1.52;;
28266;SDS011;15525;45.568;5.448;2023-05-07T02:13:26;2.78;;;1.70;;
28266;SDS011;15525;45.568;5.448;2023-05-07T02:15:54;1.95;;;1.63;;
28266;SDS011;15525;45.568;5.448;2023-05-07T02:18:19;3.72;;;1.95;;
28266;SDS011;15525;45.568;5.448;2023-05-07T02:20:44;3.00;;;1.70;;
28266;SDS011;15525;45.568;5.448;2023-05-07T02:23:10;3.33;;;1.80;;
28266;SDS011;15525;45.568;5.448;2023-05-07T02:25:35;3.30;;;1.83;;
28266;SDS011;15525;45.568;5.448;2023-05-07T02:28:01;5.30;;;2.00;;
28266;SDS011;15525;45.568;5.448;2023-05-07T02:30:26;1.83;;;1.73;;
28266;SDS011;15525;45.568;5.448;2023-05-07T02:32:51;1.90;;;1.67;;
28266;SDS011;15525;45.568;5.448;2023-05-07T02:35:17;2.17;;;1.77;;
28266;SDS011;15525;45.568;5.448;2023-05-07T02:37:42;3.55;;;1.88;;
28266;SDS011;15525;45.568;5.448;2023-05-07T02:40:08;3.15;;;1.90;;
28266;SDS011;15525;45.568;5.448;2023-05-07T02:42:34;1.95;;;1.73;;
28266;SDS011;15525;45.568;5.448;2023-05-07T02:45:00;3.92;;;1.80;;
28266;SDS011;15525;45.568;5.448;2023-05-07T02:47:25;4.72;;;2.10;;
28266;SDS011;15525;45.568;5.448;2023-05-07T02:49:53;4.00;;;2.03;;
28266;SDS011;15525;45.568;5.448;2023-05-07T02:52:19;4.57;;;2.08;;
28266;SDS011;15525;45.568;5.448;2023-05-07T02:54:44;3.38;;;2.10;;
28266;SDS011;15525;45.568;5.448;2023-05-07T02:57:10;3.53;;;1.90;;
28266;SDS011;15525;45.568;5.448;2023-05-07T02:59:35;2.40;;;1.85;;
28266;SDS011;15525;45.568;5.448;2023-05-07T03:02:01;2.47;;;2.00;;
28266;SDS011;15525;45.568;5.448;2023-05-07T03:04:26;2.17;;;1.67;;
28266;SDS011;15525;45.568;5.448;2023-05-07T03:06:52;3.13;;;2.10;;
28266;SDS011;15525;45.568;5.448;2023-05-07T03:09:17;2.33;;;1.92;;
28266;SDS011;15525;45.568;5.448;2023-05-07T03:11:42;2.80;;;2.08;;
28266;SDS011;15525;45.568;5.448;2023-05-07T03:14:08;2.30;;;2.00;;
28266;SDS011;15525;45.568;5.448;2023-05-07T03:16:33;2.75;;;2.00;;
28266;SDS011;15525;45.568;5.448;2023-05-07T03:18:59;3.33;;;2.22;;
28266;SDS011;15525;45.568;5.448;2023-05-07T03:21:25;3.00;;;1.90;;
28266;SDS011;15525;45.568;5.448;2023-05-07T03:23:51;2.53;;;1.92;;
28266;SDS011;15525;45.568;5.448;2023-05-07T03:26:16;7.10;;;2.20;;
28266;SDS011;15525;45.568;5.448;2023-05-07T03:28:42;2.17;;;1.95;;
28266;SDS011;15525;45.568;5.448;2023-05-07T03:31:07;2.47;;;1.98;;
28266;SDS011;15525;45.568;5.448;2023-05-07T03:33:33;3.00;;;2.10;;
28266;SDS011;15525;45.568;5.448;2023-05-07T03:36:00;4.88;;;2.38;;
28266;SDS011;15525;45.568;5.448;2023-05-07T03:38:25;2.42;;;2.00;;
28266;SDS011;15525;45.568;5.448;2023-05-07T03:40:51;2.70;;;2.10;;
28266;SDS011;15525;45.568;5.448;2023-05-07T03:43:16;3.45;;;2.15;;
28266;SDS011;15525;45.568;5.448;2023-05-07T03:45:42;4.03;;;2.00;;
28266;SDS011;15525;45.568;5.448;2023-05-07T03:48:07;4.80;;;2.25;;
28266;SDS011;15525;45.568;5.448;2023-05-07T03:50:33;3.40;;;2.40;;
28266;SDS011;15525;45.568;5.448;2023-05-07T03:52:58;3.33;;;2.22;;
28266;SDS011;15525;45.568;5.448;2023-05-07T03:55:24;2.30;;;2.10;;
28266;SDS011;15525;45.568;5.448;2023-05-07T03:57:50;3.85;;;2.20;;
28266;SDS011;15525;45.568;5.448;2023-05-07T04:00:15;6.13;;;2.17;;
28266;SDS011;15525;45.568;5.448;2023-05-07T04:02:41;3.10;;;2.20;;
28266;SDS011;15525;45.568;5.448;2023-05-07T04:05:07;3.50;;;2.10;;
28266;SDS011;15525;45.568;5.448;2023-05-07T04:07:32;3.20;;;2.30;;
28266;SDS011;15525;45.568;5.448;2023-05-07T04:09:58;2.50;;;2.03;;
28266;SDS011;15525;45.568;5.448;2023-05-07T04:12:23;3.28;;;2.20;;
28266;SDS011;15525;45.568;5.448;2023-05-07T04:14:49;3.28;;;2.35;;
28266;SDS011;15525;45.568;5.448;2023-05-07T04:17:14;3.20;;;2.60;;
28266;SDS011;15525;45.568;5.448;2023-05-07T04:19:39;3.58;;;2.30;;
28266;SDS011;15525;45.568;5.448;2023-05-07T04:22:10;4.80;;;2.40;;
28266;SDS011;15525;45.568;5.448;2023-05-07T04:24:35;3.17;;;2.08;;
28266;SDS011;15525;45.568;5.448;2023-05-07T04:27:01;3.25;;;2.38;;
28266;SDS011;15525;45.568;5.448;2023-05-07T04:29:26;3.50;;;2.40;;
28266;SDS011;15525;45.568;5.448;2023-05-07T04:31:52;3.72;;;2.35;;
28266;SDS011;15525;45.568;5.448;2023-05-07T04:34:17;3.95;;;2.53;;
28266;SDS011;15525;45.568;5.448;2023-05-07T04:36:43;4.93;;;2.78;;
28266;SDS011;15525;45.568;5.448;2023-05-07T04:39:08;7.07;;;3.80;;
28266;SDS011;15525;45.568;5.448;2023-05-07T04:41:35;14.73;;;6.15;;
28266;SDS011;15525;45.568;5.448;2023-05-07T04:44:01;8.32;;;4.55;;
28266;SDS011;15525;45.568;5.448;2023-05-07T04:46:29;8.75;;;3.97;;
28266;SDS011;15525;45.568;5.448;2023-05-07T04:48:54;6.85;;;3.78;;
28266;SDS011;15525;45.568;5.448;2023-05-07T04:51:20;5.07;;;3.63;;
28266;SDS011;15525;45.568;5.448;2023-05-07T04:53:45;5.63;;;3.00;;
28266;SDS011;15525;45.568;5.448;2023-05-07T04:56:11;4.13;;;2.60;;
28266;SDS011;15525;45.568;5.448;2023-05-07T04:58:36;3.30;;;3.00;;
28266;SDS011;15525;45.568;5.448;2023-05-07T05:01:02;6.43;;;3.10;;
28266;SDS011;15525;45.568;5.448;2023-05-07T05:03:27;6.10;;;3.50;;
28266;SDS011;15525;45.568;5.448;2023-05-07T05:05:52;5.35;;;3.22;;
28266;SDS011;15525;45.568;5.448;2023-05-07T05:08:18;3.38;;;2.83;;
28266;SDS011;15525;45.568;5.448;2023-05-07T05:10:43;4.93;;;3.10;;
28266;SDS011;15525;45.568;5.448;2023-05-07T05:13:09;4.20;;;2.75;;
28266;SDS011;15525;45.568;5.448;2023-05-07T05:15:37;5.18;;;3.47;;
28266;SDS011;15525;45.568;5.448;2023-05-07T05:18:03;6.05;;;3.80;;
28266;SDS011;15525;45.568;5.448;2023-05-07T05:20:28;4.63;;;3.13;;
28266;SDS011;15525;45.568;5.448;2023-05-07T05:22:54;4.95;;;3.08;;
28266;SDS011;15525;45.568;5.448;2023-05-07T05:25:20;6.35;;;3.28;;
28266;SDS011;15525;45.568;5.448;2023-05-07T05:27:45;6.20;;;3.40;;
28266;SDS011;15525;45.568;5.448;2023-05-07T05:30:11;7.28;;;3.53;;
28266;SDS011;15525;45.568;5.448;2023-05-07T05:32:37;5.43;;;2.92;;
28266;SDS011;15525;45.568;5.448;2023-05-07T05:35:03;7.10;;;3.65;;
28266;SDS011;15525;45.568;5.448;2023-05-07T05:37:29;8.88;;;3.38;;
28266;SDS011;15525;45.568;5.448;2023-05-07T05:39:55;4.88;;;3.50;;
28266;SDS011;15525;45.568;5.448;2023-05-07T05:42:20;5.13;;;2.90;;
28266;SDS011;15525;45.568;5.448;2023-05-07T05:44:46;5.30;;;3.45;;
28266;SDS011;15525;45.568;5.448;2023-05-07T05:47:11;6.15;;;3.40;;
28266;SDS011;15525;45.568;5.448;2023-05-07T05:49:37;5.22;;;3.47;;
28266;SDS011;15525;45.568;5.448;2023-05-07T05:52:02;5.75;;;3.28;;
28266;SDS011;15525;45.568;5.448;2023-05-07T05:54:28;6.05;;;3.38;;
28266;SDS011;15525;45.568;5.448;2023-05-07T05:56:53;4.75;;;3.53;;
28266;SDS011;15525;45.568;5.448;2023-05-07T05:59:19;4.65;;;3.50;;
28266;SDS011;15525;45.568;5.448;2023-05-07T06:01:44;4.53;;;3.30;;
28266;SDS011;15525;45.568;5.448;2023-05-07T06:04:10;6.18;;;3.47;;
28266;SDS011;15525;45.568;5.448;2023-05-07T06:06:35;5.30;;;3.20;;
28266;SDS011;15525;45.568;5.448;2023-05-07T06:09:01;6.75;;;3.45;;
28266;SDS011;15525;45.568;5.448;2023-05-07T06:11:26;4.78;;;3.20;;
28266;SDS011;15525;45.568;5.448;2023-05-07T06:13:51;5.22;;;3.28;;
28266;SDS011;15525;45.568;5.448;2023-05-07T06:16:17;5.32;;;3.63;;
28266;SDS011;15525;45.568;5.448;2023-05-07T06:18:42;4.65;;;3.47;;
28266;SDS011;15525;45.568;5.448;2023-05-07T06:21:07;5.07;;;3.35;;
28266;SDS011;15525;45.568;5.448;2023-05-07T06:23:33;4.07;;;3.30;;
28266;SDS011;15525;45.568;5.448;2023-05-07T06:25:58;6.78;;;3.42;;
28266;SDS011;15525;45.568;5.448;2023-05-07T06:28:24;3.83;;;3.13;;
28266;SDS011;15525;45.568;5.448;2023-05-07T06:30:49;4.25;;;3.30;;
28266;SDS011;15525;45.568;5.448;2023-05-07T06:33:15;3.63;;;2.72;;
28266;SDS011;15525;45.568;5.448;2023-05-07T06:35:41;4.72;;;3.03;;
28266;SDS011;15525;45.568;5.448;2023-05-07T06:38:06;4.60;;;3.40;;
28266;SDS011;15525;45.568;5.448;2023-05-07T06:40:31;4.88;;;3.10;;
28266;SDS011;15525;45.568;5.448;2023-05-07T06:42:57;4.13;;;3.10;;
28266;SDS011;15525;45.568;5.448;2023-05-07T06:45:22;4.13;;;3.00;;
28266;SDS011;15525;45.568;5.448;2023-05-07T06:47:48;3.50;;;3.00;;
28266;SDS011;15525;45.568;5.448;2023-05-07T06:50:14;7.03;;;3.25;;
28266;SDS011;15525;45.568;5.448;2023-05-07T06:52:41;8.05;;;3.30;;
28266;SDS011;15525;45.568;5.448;2023-05-07T06:55:07;4.53;;;3.38;;
28266;SDS011;15525;45.568;5.448;2023-05-07T06:57:33;5.05;;;3.20;;
28266;SDS011;15525;45.568;5.448;2023-05-07T06:59:58;3.15;;;2.72;;
28266;SDS011;15525;45.568;5.448;2023-05-07T07:02:24;5.20;;;3.60;;
28266;SDS011;15525;45.568;5.448;2023-05-07T07:04:49;5.22;;;3.28;;
28266;SDS011;15525;45.568;5.448;2023-05-07T07:07:15;7.63;;;3.15;;
28266;SDS011;15525;45.568;5.448;2023-05-07T07:09:40;4.93;;;3.00;;
28266;SDS011;15525;45.568;5.448;2023-05-07T07:12:05;3.78;;;2.85;;
28266;SDS011;15525;45.568;5.448;2023-05-07T07:14:31;4.30;;;2.70;;
28266;SDS011;15525;45.568;5.448;2023-05-07T07:16:56;3.10;;;2.75;;
28266;SDS011;15525;45.568;5.448;2023-05-07T07:19:22;3.13;;;2.80;;
28266;SDS011;15525;45.568;5.448;2023-05-07T07:21:47;4.85;;;2.78;;
28266;SDS011;15525;45.568;5.448;2023-05-07T07:24:13;5.18;;;3.40;;
28266;SDS011;15525;45.568;5.448;2023-05-07T07:26:44;4.30;;;3.00;;
28266;SDS011;15525;45.568;5.448;2023-05-07T07:29:09;4.45;;;2.90;;
28266;SDS011;15525;45.568;5.448;2023-05-07T07:31:35;3.45;;;2.92;;
28266;SDS011;15525;45.568;5.448;2023-05-07T07:34:00;3.55;;;2.92;;
28266;SDS011;15525;45.568;5.448;2023-05-07T07:36:26;4.65;;;2.90;;
28266;SDS011;15525;45.568;5.448;2023-05-07T07:38:51;2.92;;;2.63;;
28266;SDS011;15525;45.568;5.448;2023-05-07T07:41:17;3.97;;;2.50;;
28266;SDS011;15525;45.568;5.448;2023-05-07T07:43:43;4.68;;;2.70;;
28266;SDS011;15525;45.568;5.448;2023-05-07T07:46:08;3.40;;;2.60;;
28266;SDS011;15525;45.568;5.448;2023-05-07T07:48:33;2.92;;;2.53;;
28266;SDS011;15525;45.568;5.448;2023-05-07T07:50:59;3.83;;;2.70;;
28266;SDS011;15525;45.568;5.448;2023-05-07T07:53:24;4.55;;;2.60;;
28266;SDS011;15525;45.568;5.448;2023-05-07T07:55:50;4.82;;;2.88;;
28266;SDS011;15525;45.568;5.448;2023-05-07T07:58:16;4.28;;;2.65;;
28266;SDS011;15525;45.568;5.448;2023-05-07T08:00:41;4.65;;;2.40;;
28266;SDS011;15525;45.568;5.448;2023-05-07T08:03:08;3.88;;;2.63;;
28266;SDS011;15525;45.568;5.448;2023-05-07T08:05:34;3.33;;;2.70;;
28266;SDS011;15525;45.568;5.448;2023-05-07T08:08:01;3.72;;;2.75;;
28266;SDS011;15525;45.568;5.448;2023-05-07T08:10:26;5.80;;;2.85;;
28266;SDS011;15525;45.568;5.448;2023-05-07T08:12:52;4.35;;;2.60;;
28266;SDS011;15525;45.568;5.448;2023-05-07T08:15:17;5.45;;;2.78;;
28266;SDS011;15525;45.568;5.448;2023-05-07T08:17:43;3.97;;;3.05;;
28266;SDS011;15525;45.568;5.448;2023-05-07T08:20:08;3.38;;;2.40;;
28266;SDS011;15525;45.568;5.448;2023-05-07T08:22:35;5.28;;;2.80;;
28266;SDS011;15525;45.568;5.448;2023-05-07T08:25:01;3.80;;;2.45;;
28266;SDS011;15525;45.568;5.448;2023-05-07T08:27:26;3.20;;;2.40;;
28266;SDS011;15525;45.568;5.448;2023-05-07T08:29:52;4.10;;;2.78;;
28266;SDS011;15525;45.568;5.448;2023-05-07T08:32:17;4.25;;;3.00;;
28266;SDS011;15525;45.568;5.448;2023-05-07T08:34:43;4.00;;;3.20;;
28266;SDS011;15525;45.568;5.448;2023-05-07T08:37:08;6.32;;;3.20;;
28266;SDS011;15525;45.568;5.448;2023-05-07T08:39:33;4.00;;;2.92;;
28266;SDS011;15525;45.568;5.448;2023-05-07T08:42:00;3.78;;;2.72;;
28266;SDS011;15525;45.568;5.448;2023-05-07T08:44:27;5.43;;;2.60;;
28266;SDS011;15525;45.568;5.448;2023-05-07T08:46:56;2.92;;;2.50;;
28266;SDS011;15525;45.568;5.448;2023-05-07T08:49:21;3.30;;;2.63;;
28266;SDS011;15525;45.568;5.448;2023-05-07T08:51:47;3.72;;;2.50;;
28266;SDS011;15525;45.568;5.448;2023-05-07T08:54:15;3.42;;;2.60;;
28266;SDS011;15525;45.568;5.448;2023-05-07T08:56:41;4.35;;;2.67;;
28266;SDS011;15525;45.568;5.448;2023-05-07T08:59:06;4.40;;;2.50;;
28266;SDS011;15525;45.568;5.448;2023-05-07T09:01:32;4.40;;;2.65;;
28266;SDS011;15525;45.568;5.448;2023-05-07T09:04:00;3.50;;;2.92;;
28266;SDS011;15525;45.568;5.448;2023-05-07T09:06:25;4.60;;;2.80;;
28266;SDS011;15525;45.568;5.448;2023-05-07T09:08:52;6.13;;;3.20;;
28266;SDS011;15525;45.568;5.448;2023-05-07T09:11:19;3.42;;;2.90;;
28266;SDS011;15525;45.568;5.448;2023-05-07T09:13:48;5.30;;;2.88;;
28266;SDS011;15525;45.568;5.448;2023-05-07T09:16:14;3.30;;;2.80;;
28266;SDS011;15525;45.568;5.448;2023-05-07T09:18:41;4.45;;;2.90;;
28266;SDS011;15525;45.568;5.448;2023-05-07T09:21:09;5.30;;;3.05;;
28266;SDS011;15525;45.568;5.448;2023-05-07T09:23:35;3.67;;;3.00;;
28266;SDS011;15525;45.568;5.448;2023-05-07T09:26:00;5.38;;;3.10;;
28266;SDS011;15525;45.568;5.448;2023-05-07T09:28:27;4.13;;;2.85;;
28266;SDS011;15525;45.568;5.448;2023-05-07T09:30:52;6.20;;;3.53;;
28266;SDS011;15525;45.568;5.448;2023-05-07T09:33:18;4.78;;;3.47;;
28266;SDS011;15525;45.568;5.448;2023-05-07T09:35:43;5.10;;;3.28;;
28266;SDS011;15525;45.568;5.448;2023-05-07T09:38:08;4.68;;;3.42;;
28266;SDS011;15525;45.568;5.448;2023-05-07T09:40:34;5.30;;;3.72;;
28266;SDS011;15525;45.568;5.448;2023-05-07T09:43:09;5.15;;;3.75;;
28266;SDS011;15525;45.568;5.448;2023-05-07T09:45:36;5.55;;;4.00;;
28266;SDS011;15525;45.568;5.448;2023-05-07T09:48:02;5.13;;;4.10;;
28266;SDS011;15525;45.568;5.448;2023-05-07T09:50:32;5.95;;;4.53;;
28266;SDS011;15525;45.568;5.448;2023-05-07T09:53:01;7.45;;;4.50;;
28266;SDS011;15525;45.568;5.448;2023-05-07T09:55:28;6.60;;;4.10;;
28266;SDS011;15525;45.568;5.448;2023-05-07T09:57:54;5.30;;;3.63;;
28266;SDS011;15525;45.568;5.448;2023-05-07T10:00:21;4.05;;;3.10;;
28266;SDS011;15525;45.568;5.448;2023-05-07T10:02:48;4.57;;;3.20;;
28266;SDS011;15525;45.568;5.448;2023-05-07T10:05:16;3.40;;;3.10;;
28266;SDS011;15525;45.568;5.448;2023-05-07T10:07:42;4.03;;;2.85;;
28266;SDS011;15525;45.568;5.448;2023-05-07T10:10:08;6.05;;;2.80;;
28266;SDS011;15525;45.568;5.448;2023-05-07T10:12:34;3.35;;;2.33;;
28266;SDS011;15525;45.568;5.448;2023-05-07T10:15:07;3.53;;;2.58;;
28266;SDS011;15525;45.568;5.448;2023-05-07T10:17:39;4.18;;;3.00;;
28266;SDS011;15525;45.568;5.448;2023-05-07T10:20:06;4.05;;;2.60;;
28266;SDS011;15525;45.568;5.448;2023-05-07T10:22:37;3.50;;;2.60;;
28266;SDS011;15525;45.568;5.448;2023-05-07T10:25:04;3.72;;;2.75;;
28266;SDS011;15525;45.568;5.448;2023-05-07T10:27:34;4.35;;;2.83;;
28266;SDS011;15525;45.568;5.448;2023-05-07T10:30:11;5.07;;;2.60;;
28266;SDS011;15525;45.568;5.448;2023-05-07T10:32:48;3.80;;;2.72;;
28266;SDS011;15525;45.568;5.448;2023-05-07T10:35:26;4.00;;;2.80;;
28266;SDS011;15525;45.568;5.448;2023-05-07T10:37:55;4.20;;;2.40;;
28266;SDS011;15525;45.568;5.448;2023-05-07T10:40:20;4.82;;;2.70;;
28266;SDS011;15525;45.568;5.448;2023-05-07T10:42:53;4.10;;;2.88;;
28266;SDS011;15525;45.568;5.448;2023-05-07T10:45:23;4.15;;;2.78;;
28266;SDS011;15525;45.568;5.448;2023-05-07T10:50:36;4.25;;;2.70;;
28266;SDS011;15525;45.568;5.448;2023-05-07T10:55:49;5.73;;;2.97;;
28266;SDS011;15525;45.568;5.448;2023-05-07T11:00:48;5.70;;;3.58;;
28266;SDS011;15525;45.568;5.448;2023-05-07T11:03:14;6.65;;;3.72;;
28266;SDS011;15525;45.568;5.448;2023-05-07T11:05:40;5.55;;;3.67;;
28266;SDS011;15525;45.568;5.448;2023-05-07T11:08:07;6.03;;;3.95;;
28266;SDS011;15525;45.568;5.448;2023-05-07T11:10:49;4.57;;;3.97;;
28266;SDS011;15525;45.568;5.448;2023-05-07T11:13:15;6.80;;;4.05;;
28266;SDS011;15525;45.568;5.448;2023-05-07T11:15:42;8.90;;;3.88;;
28266;SDS011;15525;45.568;5.448;2023-05-07T11:18:12;5.35;;;4.05;;
28266;SDS011;15525;45.568;5.448;2023-05-07T11:20:47;5.63;;;4.38;;
28266;SDS011;15525;45.568;5.448;2023-05-07T11:28:31;7.22;;;4.80;;
28266;SDS011;15525;45.568;5.448;2023-05-07T11:31:01;7.55;;;4.90;;
28266;SDS011;15525;45.568;5.448;2023-05-07T11:33:27;7.45;;;5.60;;
28266;SDS011;15525;45.568;5.448;2023-05-07T11:35:54;7.53;;;5.18;;
28266;SDS011;15525;45.568;5.448;2023-05-07T11:38:20;8.52;;;5.50;;
28266;SDS011;15525;45.568;5.448;2023-05-07T11:40:50;8.82;;;5.90;;
28266;SDS011;15525;45.568;5.448;2023-05-07T11:43:20;8.88;;;6.15;;
28266;SDS011;15525;45.568;5.448;2023-05-07T11:45:46;7.28;;;5.75;;
28266;SDS011;15525;45.568;5.448;2023-05-07T11:48:12;10.10;;;6.70;;
28266;SDS011;15525;45.568;5.448;2023-05-07T11:53:43;11.50;;;6.72;;
28266;SDS011;15525;45.568;5.448;2023-05-07T11:56:10;8.50;;;6.43;;
28266;SDS011;15525;45.568;5.448;2023-05-07T11:58:37;9.80;;;6.95;;
28266;SDS011;15525;45.568;5.448;2023-05-07T12:01:03;8.15;;;6.88;;
28266;SDS011;15525;45.568;5.448;2023-05-07T12:03:29;8.23;;;6.85;;
28266;SDS011;15525;45.568;5.448;2023-05-07T12:05:55;9.95;;;7.50;;
28266;SDS011;15525;45.568;5.448;2023-05-07T12:08:21;13.93;;;8.80;;
28266;SDS011;15525;45.568;5.448;2023-05-07T12:10:48;12.43;;;9.07;;
28266;SDS011;15525;45.568;5.448;2023-05-07T12:15:42;10.48;;;7.57;;
28266;SDS011;15525;45.568;5.448;2023-05-07T12:18:08;10.23;;;7.80;;
28266;SDS011;15525;45.568;5.448;2023-05-07T12:20:34;10.90;;;7.78;;
28266;SDS011;15525;45.568;5.448;2023-05-07T12:23:01;12.80;;;7.85;;
28266;SDS011;15525;45.568;5.448;2023-05-07T12:25:29;9.07;;;6.88;;
28266;SDS011;15525;45.568;5.448;2023-05-07T12:27:56;9.75;;;7.50;;
28266;SDS011;15525;45.568;5.448;2023-05-07T12:30:23;8.80;;;6.90;;
28266;SDS011;15525;45.568;5.448;2023-05-07T12:32:52;9.23;;;7.45;;
28266;SDS011;15525;45.568;5.448;2023-05-07T12:35:27;9.27;;;7.32;;
28266;SDS011;15525;45.568;5.448;2023-05-07T12:37:59;7.78;;;6.10;;
28266;SDS011;15525;45.568;5.448;2023-05-07T12:40:41;7.90;;;5.97;;
28266;SDS011;15525;45.568;5.448;2023-05-07T12:43:19;6.60;;;4.88;;
28266;SDS011;15525;45.568;5.448;2023-05-07T12:45:45;6.20;;;5.05;;
28266;SDS011;15525;45.568;5.448;2023-05-07T12:48:13;7.55;;;4.88;;
28266;SDS011;15525;45.568;5.448;2023-05-07T12:50:38;8.93;;;5.80;;
28266;SDS011;15525;45.568;5.448;2023-05-07T12:53:06;6.57;;;5.30;;
28266;SDS011;15525;45.568;5.448;2023-05-07T12:55:40;7.93;;;5.18;;
28266;SDS011;15525;45.568;5.448;2023-05-07T12:58:19;6.30;;;4.07;;
28266;SDS011;15525;45.568;5.448;2023-05-07T13:00:48;4.55;;;3.53;;
28266;SDS011;15525;45.568;5.448;2023-05-07T13:06:15;5.13;;;3.40;;
28266;SDS011;15525;45.568;5.448;2023-05-07T13:08:41;4.35;;;3.20;;
28266;SDS011;15525;45.568;5.448;2023-05-07T13:11:10;5.10;;;4.10;;
28266;SDS011;15525;45.568;5.448;2023-05-07T13:13:37;7.13;;;3.92;;
28266;SDS011;15525;45.568;5.448;2023-05-07T13:16:04;13.52;;;6.60;;
28266;SDS011;15525;45.568;5.448;2023-05-07T13:18:30;5.53;;;3.60;;
28266;SDS011;15525;45.568;5.448;2023-05-07T13:20:56;12.30;;;7.07;;
28266;SDS011;15525;45.568;5.448;2023-05-07T13:23:22;6.30;;;4.13;;
28266;SDS011;15525;45.568;5.448;2023-05-07T13:25:48;4.70;;;3.40;;
28266;SDS011;15525;45.568;5.448;2023-05-07T13:28:14;7.15;;;3.63;;
28266;SDS011;15525;45.568;5.448;2023-05-07T13:30:39;6.25;;;3.50;;
28266;SDS011;15525;45.568;5.448;2023-05-07T13:33:08;4.80;;;3.65;;
28266;SDS011;15525;45.568;5.448;2023-05-07T13:35:34;3.97;;;3.38;;
28266;SDS011;15525;45.568;5.448;2023-05-07T13:37:59;3.88;;;3.22;;
28266;SDS011;15525;45.568;5.448;2023-05-07T13:40:25;4.05;;;2.90;;
28266;SDS011;15525;45.568;5.448;2023-05-07T13:42:50;3.95;;;2.95;;
28266;SDS011;15525;45.568;5.448;2023-05-07T13:45:19;3.95;;;3.20;;
28266;SDS011;15525;45.568;5.448;2023-05-07T13:47:45;3.33;;;2.58;;
28266;SDS011;15525;45.568;5.448;2023-05-07T13:50:11;4.20;;;3.25;;
28266;SDS011;15525;45.568;5.448;2023-05-07T13:52:39;4.82;;;3.97;;
28266;SDS011;15525;45.568;5.448;2023-05-07T13:55:09;5.95;;;4.45;;
28266;SDS011;15525;45.568;5.448;2023-05-07T13:57:36;4.82;;;3.90;;
28266;SDS011;15525;45.568;5.448;2023-05-07T14:00:02;5.15;;;4.20;;
28266;SDS011;15525;45.568;5.448;2023-05-07T14:02:30;6.40;;;4.53;;
28266;SDS011;15525;45.568;5.448;2023-05-07T14:04:56;8.35;;;4.03;;
28266;SDS011;15525;45.568;5.448;2023-05-07T14:07:21;6.13;;;4.18;;
28266;SDS011;15525;45.568;5.448;2023-05-07T14:09:47;6.80;;;3.80;;
28266;SDS011;15525;45.568;5.448;2023-05-07T14:12:12;8.43;;;4.20;;
28266;SDS011;15525;45.568;5.448;2023-05-07T14:14:37;6.10;;;3.80;;
28266;SDS011;15525;45.568;5.448;2023-05-07T14:17:03;4.25;;;3.58;;
28266;SDS011;15525;45.568;5.448;2023-05-07T14:19:28;5.32;;;3.55;;
28266;SDS011;15525;45.568;5.448;2023-05-07T14:21:54;4.57;;;3.53;;
28266;SDS011;15525;45.568;5.448;2023-05-07T14:24:19;6.18;;;3.65;;
28266;SDS011;15525;45.568;5.448;2023-05-07T14:26:45;5.45;;;3.40;;
28266;SDS011;15525;45.568;5.448;2023-05-07T14:29:10;5.45;;;3.20;;
28266;SDS011;15525;45.568;5.448;2023-05-07T14:31:36;5.45;;;3.53;;
28266;SDS011;15525;45.568;5.448;2023-05-07T14:34:01;4.15;;;3.47;;
28266;SDS011;15525;45.568;5.448;2023-05-07T14:36:27;4.78;;;3.63;;
28266;SDS011;15525;45.568;5.448;2023-05-07T14:38:52;3.97;;;3.00;;
28266;SDS011;15525;45.568;5.448;2023-05-07T14:41:24;7.80;;;3.40;;
28266;SDS011;15525;45.568;5.448;2023-05-07T14:43:49;4.90;;;4.00;;
28266;SDS011;15525;45.568;5.448;2023-05-07T14:46:18;7.38;;;3.85;;
28266;SDS011;15525;45.568;5.448;2023-05-07T14:48:44;6.85;;;4.30;;
28266;SDS011;15525;45.568;5.448;2023-05-07T14:51:11;6.15;;;4.07;;
28266;SDS011;15525;45.568;5.448;2023-05-07T14:53:37;5.93;;;4.75;;
28266;SDS011;15525;45.568;5.448;2023-05-07T14:56:02;9.05;;;4.10;;
28266;SDS011;15525;45.568;5.448;2023-05-07T14:58:28;6.43;;;3.65;;
28266;SDS011;15525;45.568;5.448;2023-05-07T15:00:54;6.30;;;3.90;;
28266;SDS011;15525;45.568;5.448;2023-05-07T15:03:19;4.68;;;3.80;;
28266;SDS011;15525;45.568;5.448;2023-05-07T15:05:45;2.72;;;2.30;;